KLEB/LEB METAR and TAF weather

Enter ICAO airport designator
Station Type Date Time Source
KLEB METAR 2020/10/20 16:53 UTC NOAA

KLEB 201653Z 21003KT 10SM FEW012 OVC028 15/12 A3021 RMK AO2 RAB28E41 SLP229 P0000 T01500122


Station Type Date Time Source
KLEB Decoded METAR 2020/10/20 16:53 UTC NOAA

LEBANON MUNICIPAL AIRPORT, NH, United States (KLEB) 43-38N 072-18W 171M
Oct 20, 2020 - 12:53 PM EDT / 2020.10.20 1653 UTC
Wind: from the SSW (210 degrees) at 3 MPH (3 KT):0
Visibility: 10 mile(s):0
Sky conditions: overcast
Precipitation last hour: A trace
Temperature: 59.0 F (15.0 C)
Dew Point: 54.0 F (12.2 C)
Relative Humidity: 83%
Pressure (altimeter): 30.21 in. Hg (1023 hPa)
ob: KLEB 201653Z 21003KT 10SM FEW012 OVC028 15/12 A3021 RMK AO2 RAB28E41 SLP229 P0000 T01500122
cycle: 17

Station Type Date Time Source
KLEB TAF 2020/10/20 18:36 UTC NOAA

TAF KLEB 201733Z 2018/2118 22004KT P6SM BKN030
FM202300 VRB02KT 2SM BR VCSH OVC015
FM210700 00000KT 2SM BR VCSH OVC009
FM211000 00000KT 2SM BR VCSH OVC003

Example: see airport list